Time;durP1;ratioP1;P1;durP2;ratioP2;P2;SDS_P1;SDS_P2;PMS_P1;PMS_P2;Temp;Humidity;BMP_temperature;BMP_pressure;BME280_temperature;BME280_humidity;BME280_pressure;Samples;Min_cycle;Max_cycle;Signal;HPM_P1;HPM_P2
2023/04/08 00:01:22;;;;;;;;;;;;;;;9.32;71.64;101709.00;5064113;28;19929;-67
2023/04/08 00:03:50;;;;;;;;;;;;;;;9.17;72.36;101715.38;5071465;28;19928;-65
2023/04/08 00:06:17;;;;;;;;;;;;;;;9.13;72.80;101720.59;5059208;28;19991;-66
2023/04/08 00:08:44;;;;;;;;;;;;;;;9.06;73.88;101716.53;5056245;28;19925;-66
2023/04/08 00:11:11;;;;;;;;;;;;;;;9.08;73.87;101715.13;5045268;28;19931;-67
2023/04/08 00:13:38;;;;;;;;;;;;;;;9.17;73.91;101718.13;5075846;28;19925;-66
2023/04/08 00:16:06;;;;;;;;;;;;;;;9.15;73.97;101719.50;5074565;28;20335;-66
2023/04/08 00:18:33;;;;;;;;;;;;;;;9.32;73.25;101715.34;5068767;28;20292;-66
2023/04/08 00:21:01;;;;;;;;;;;;;;;9.21;73.90;101718.38;5073070;28;19931;-66
2023/04/08 00:23:28;;;;;;;;;;;;;;;9.26;73.83;101715.63;5073273;28;19929;-64
2023/04/08 00:25:55;;;;;;;;;;;;;;;8.92;74.62;101720.94;5055411;28;19944;-65
2023/04/08 00:28:22;;;;;;;;;;;;;;;8.84;75.33;101716.00;5065228;28;19944;-64
2023/04/08 00:30:50;;;;;;;;;;;;;;;8.88;75.23;101717.94;5073384;28;19936;-65
2023/04/08 00:33:17;;;;;;;;;;;;;;;8.98;74.74;101720.66;5071767;28;19936;-65
2023/04/08 00:35:45;;;;;;;;;;;;;;;9.11;74.22;101719.25;5055877;28;19929;-65
2023/04/08 00:38:12;;;;;;;;;;;;;;;9.20;73.73;101722.25;5075648;28;20581;-67
2023/04/08 00:40:39;;;;;;;;;;;;;;;9.30;73.30;101724.94;5071689;28;19935;-68
2023/04/08 00:43:06;;;;;;;;;;;;;;;9.19;73.23;101717.84;5056385;28;19931;-68
2023/04/08 00:45:33;;;;;;;;;;;;;;;9.29;72.95;101726.06;5072883;28;19924;-68
2023/04/08 00:48:01;;;;;;;;;;;;;;;9.15;72.97;101736.00;5073853;28;19928;-68
2023/04/08 00:50:28;;;;;;;;;;;;;;;9.10;73.05;101729.41;5059587;28;19944;-69
2023/04/08 00:52:56;;;;;;;;;;;;;;;9.04;73.01;101729.72;5054436;28;20699;-67
2023/04/08 00:55:23;;;;;;;;;;;;;;;8.99;73.11;101733.31;5055636;28;19931;-67
2023/04/08 00:57:50;;;;;;;;;;;;;;;8.87;73.61;101726.47;5089635;28;20322;-67
2023/04/08 01:00:18;;;;;;;;;;;;;;;8.65;74.85;101736.91;5073922;28;19920;-68
2023/04/08 01:02:47;;;;;;;;;;;;;;;8.88;74.46;101728.09;5056280;28;19924;-68
2023/04/08 01:05:20;;;;;;;;;;;;;;;8.94;74.01;101730.53;5062178;28;19925;-67
2023/04/08 01:07:47;;;;;;;;;;;;;;;8.97;73.72;101732.75;5074427;28;20375;-67
2023/04/08 01:10:16;;;;;;;;;;;;;;;9.07;73.72;101729.16;5056125;28;19924;-67
2023/04/08 01:12:49;;;;;;;;;;;;;;;8.92;73.66;101731.94;5038359;28;19920;-67
2023/04/08 01:15:16;;;;;;;;;;;;;;;8.83;73.84;101728.94;5053924;28;19931;-67
2023/04/08 01:17:44;;;;;;;;;;;;;;;8.95;73.26;101723.97;5073948;28;19920;-68
2023/04/08 01:20:11;;;;;;;;;;;;;;;9.01;73.28;101731.06;5051909;28;19927;-67
2023/04/08 01:23:02;;;;;;;;;;;;;;;9.18;72.26;101722.53;5072403;28;19921;-65
2023/04/08 01:25:31;;;;;;;;;;;;;;;9.06;71.53;101731.09;5071602;28;20375;-65
2023/04/08 01:28:06;;;;;;;;;;;;;;;9.09;71.65;101730.53;5071688;28;19940;-66
2023/04/08 01:30:33;;;;;;;;;;;;;;;8.96;72.04;101731.09;5024589;28;19924;-65
2023/04/08 01:33:01;;;;;;;;;;;;;;;8.81;72.37;101736.63;5068882;28;19920;-65
2023/04/08 01:35:29;;;;;;;;;;;;;;;8.71;73.15;101742.13;5053608;28;19925;-65
2023/04/08 01:37:56;;;;;;;;;;;;;;;8.57;73.68;101741.03;5028287;28;20019;-65
2023/04/08 01:40:24;;;;;;;;;;;;;;;8.45;74.72;101735.00;5057747;28;19925;-65
2023/04/08 01:42:53;;;;;;;;;;;;;;;8.81;73.42;101733.88;5056007;28;19935;-65
2023/04/08 01:45:20;;;;;;;;;;;;;;;8.57;73.74;101741.03;5070476;28;19928;-65
2023/04/08 01:47:48;;;;;;;;;;;;;;;8.30;75.03;101737.72;5072222;28;19935;-65
2023/04/08 01:50:15;;;;;;;;;;;;;;;8.24;75.31;101736.09;5072849;28;19943;-65
2023/04/08 01:52:43;;;;;;;;;;;;;;;8.40;75.35;101726.78;5055000;28;19931;-65
2023/04/08 01:55:11;;;;;;;;;;;;;;;8.56;74.33;101733.09;5020578;28;19921;-65
2023/04/08 01:57:39;;;;;;;;;;;;;;;8.54;74.02;101735.28;5071953;28;19928;-65
2023/04/08 02:00:07;;;;;;;;;;;;;;;8.38;74.70;101728.97;5053191;28;19920;-66
2023/04/08 02:02:46;;;;;;;;;;;;;;;8.35;74.70;101736.94;5068954;28;19928;-65
2023/04/08 02:05:14;;;;;;;;;;;;;;;8.40;74.55;101734.19;5055696;28;19924;-66
2023/04/08 02:07:41;;;;;;;;;;;;;;;8.45;74.69;101739.66;5053240;28;19920;-66
2023/04/08 02:10:09;;;;;;;;;;;;;;;8.55;74.27;101732.25;5072234;28;19927;-66
2023/04/08 02:12:36;;;;;;;;;;;;;;;8.46;74.51;101733.91;5069381;28;19924;-66
2023/04/08 02:15:09;;;;;;;;;;;;;;;8.12;75.64;101732.75;5071653;28;19920;-66
2023/04/08 02:17:44;;;;;;;;;;;;;;;8.28;75.71;101736.38;5067538;28;19932;-66
2023/04/08 02:20:15;;;;;;;;;;;;;;;8.25;75.55;101729.50;5055392;28;19927;-66
2023/04/08 02:22:43;;;;;;;;;;;;;;;8.43;74.32;101736.38;5071409;28;20406;-66
2023/04/08 02:25:12;;;;;;;;;;;;;;;8.46;74.43;101739.38;5057677;28;20624;-65
2023/04/08 02:27:40;;;;;;;;;;;;;;;8.35;74.86;101725.94;5069978;28;19931;-66
2023/04/08 02:30:11;;;;;;;;;;;;;;;8.20;74.79;101728.63;5073105;28;19920;-66
2023/04/08 02:32:38;;;;;;;;;;;;;;;8.22;74.71;101720.94;5079949;28;19925;-65
2023/04/08 02:35:05;;;;;;;;;;;;;;;8.20;74.95;101726.72;5052616;28;20577;-66
2023/04/08 02:37:32;;;;;;;;;;;;;;;8.31;74.47;101733.06;5067983;28;20035;-66
2023/04/08 02:39:59;;;;;;;;;;;;;;;8.08;74.97;101728.06;5073587;28;19924;-66
2023/04/08 02:42:26;;;;;;;;;;;;;;;7.99;75.16;101727.78;5064867;28;19925;-66
2023/04/08 02:44:53;;;;;;;;;;;;;;;7.81;76.37;101731.06;5047742;28;19932;-66
2023/04/08 02:47:21;;;;;;;;;;;;;;;8.08;75.75;101728.06;5063480;28;20398;-65
2023/04/08 02:49:52;;;;;;;;;;;;;;;8.07;75.23;101730.00;5055177;28;20306;-66
2023/04/08 02:52:19;;;;;;;;;;;;;;;7.84;76.03;101731.34;5068797;28;19920;-65
2023/04/08 02:54:46;;;;;;;;;;;;;;;7.73;76.83;101729.66;5072468;28;19927;-66
2023/04/08 02:57:13;;;;;;;;;;;;;;;7.97;76.06;101732.72;5069306;28;19925;-67
2023/04/08 02:59:41;;;;;;;;;;;;;;;8.04;75.61;101732.47;5068995;28;19920;-66
2023/04/08 03:02:08;;;;;;;;;;;;;;;7.95;75.91;101737.63;5060276;28;19924;-66
2023/04/08 03:04:35;;;;;;;;;;;;;;;7.71;76.76;101734.56;5065390;28;19920;-66
2023/04/08 03:07:02;;;;;;;;;;;;;;;7.61;77.48;101733.72;5071464;28;19920;-65
2023/04/08 03:09:29;;;;;;;;;;;;;;;7.68;77.41;101732.38;5053132;28;19924;-66
2023/04/08 03:11:56;;;;;;;;;;;;;;;7.81;77.15;101737.34;5061848;28;20687;-66
2023/04/08 03:14:23;;;;;;;;;;;;;;;7.86;76.89;101739.28;5053283;28;19932;-66
2023/04/08 03:16:50;;;;;;;;;;;;;;;7.88;76.63;101737.06;5075030;28;19928;-66
2023/04/08 03:19:17;;;;;;;;;;;;;;;8.05;75.79;101732.19;5067013;28;19920;-65
2023/04/08 03:21:45;;;;;;;;;;;;;;;7.79;76.46;101742.25;5064017;28;19921;-64
2023/04/08 03:24:12;;;;;;;;;;;;;;;7.77;76.66;101740.91;5073268;28;19920;-66
2023/04/08 03:26:39;;;;;;;;;;;;;;;7.91;76.04;101742.03;5052371;28;19920;-65
2023/04/08 03:29:06;;;;;;;;;;;;;;;7.93;75.25;101732.44;5071732;28;19935;-67
2023/04/08 03:31:33;;;;;;;;;;;;;;;7.96;75.44;101734.66;5069577;28;19925;-66
2023/04/08 03:34:00;;;;;;;;;;;;;;;8.06;74.98;101733.81;5067426;28;19985;-66
2023/04/08 03:36:28;;;;;;;;;;;;;;;8.07;74.77;101740.16;5067437;28;19925;-66
2023/04/08 03:38:55;;;;;;;;;;;;;;;8.02;74.83;101740.94;5051761;28;19927;-66
2023/04/08 03:41:22;;;;;;;;;;;;;;;8.17;74.65;101741.00;5069590;28;20334;-67
2023/04/08 03:43:49;;;;;;;;;;;;;;;7.98;74.34;101743.41;5064872;28;19925;-66
2023/04/08 03:46:16;;;;;;;;;;;;;;;7.52;76.69;101749.88;5060637;28;19924;-66
2023/04/08 03:48:43;;;;;;;;;;;;;;;7.62;76.92;101743.56;5066952;28;19924;-66
2023/04/08 03:51:10;;;;;;;;;;;;;;;7.83;75.90;101748.03;5069976;28;19920;-66
2023/04/08 03:53:37;;;;;;;;;;;;;;;7.94;75.69;101746.97;5052646;28;19921;-65
2023/04/08 03:56:05;;;;;;;;;;;;;;;7.82;75.42;101751.88;5072310;28;19935;-64
2023/04/08 03:58:32;;;;;;;;;;;;;;;7.59;76.16;101750.44;5067822;28;19928;-67
2023/04/08 04:00:59;;;;;;;;;;;;;;;7.58;76.26;101753.44;5056593;28;20299;-68
2023/04/08 04:03:26;;;;;;;;;;;;;;;7.54;76.60;101752.34;5070340;28;19921;-70
2023/04/08 04:05:53;;;;;;;;;;;;;;;7.71;76.27;101741.97;5068779;28;20379;-68
2023/04/08 04:08:21;;;;;;;;;;;;;;;7.78;75.93;101745.28;5054311;28;19932;-68
2023/04/08 04:10:48;;;;;;;;;;;;;;;7.73;75.64;101742.53;5052237;28;20188;-68
2023/04/08 04:13:15;;;;;;;;;;;;;;;7.95;75.17;101737.63;5051933;28;19924;-68
2023/04/08 04:15:42;;;;;;;;;;;;;;;7.83;75.29;101739.81;5036741;28;19931;-66
2023/04/08 04:18:10;;;;;;;;;;;;;;;7.79;75.50;101731.28;5063442;28;19943;-65
2023/04/08 04:20:41;;;;;;;;;;;;;;;7.88;74.89;101745.31;5052197;28;19924;-67
2023/04/08 04:23:08;;;;;;;;;;;;;;;7.75;75.35;101741.19;5050216;28;19920;-66
2023/04/08 04:25:35;;;;;;;;;;;;;;;7.56;76.40;101745.50;5067918;28;20497;-65
2023/04/08 04:28:02;;;;;;;;;;;;;;;7.59;76.31;101749.59;5072713;28;19925;-65
2023/04/08 04:30:29;;;;;;;;;;;;;;;7.76;75.75;101751.03;5063530;28;19924;-67
2023/04/08 04:32:57;;;;;;;;;;;;;;;7.75;75.06;101748.56;5074628;28;19924;-67
2023/04/08 04:35:24;;;;;;;;;;;;;;;7.91;75.15;101751.06;5073772;28;20345;-67
2023/04/08 04:37:51;;;;;;;;;;;;;;;7.72;75.51;101754.59;5056258;28;19920;-68
2023/04/08 04:40:18;;;;;;;;;;;;;;;7.68;75.48;101756.22;5075362;28;19920;-65
2023/04/08 04:42:45;;;;;;;;;;;;;;;7.39;76.18;101755.03;5052798;28;19936;-66
2023/04/08 04:45:13;;;;;;;;;;;;;;;7.47;76.61;101755.31;5071681;28;19928;-65
2023/04/08 04:47:40;;;;;;;;;;;;;;;7.39;76.51;101764.03;5071599;28;20466;-67
2023/04/08 04:50:07;;;;;;;;;;;;;;;7.56;76.21;101772.91;5074584;28;19927;-67
2023/04/08 04:52:34;;;;;;;;;;;;;;;7.63;76.04;101772.66;5072931;28;19931;-66
2023/04/08 04:55:02;;;;;;;;;;;;;;;7.66;75.06;101777.59;5056455;28;19935;-65
2023/04/08 04:57:29;;;;;;;;;;;;;;;7.24;76.81;101782.31;5058765;28;19931;-67
2023/04/08 04:59:56;;;;;;;;;;;;;;;7.10;77.81;101779.22;5070052;28;19920;-66
2023/04/08 05:02:24;;;;;;;;;;;;;;;7.18;77.54;101781.50;5071508;28;20354;-65
2023/04/08 05:04:52;;;;;;;;;;;;;;;7.22;77.58;101790.81;5074246;28;19958;-66
2023/04/08 05:07:20;;;;;;;;;;;;;;;7.50;76.19;101789.59;5071856;28;20268;-65
2023/04/08 05:09:47;;;;;;;;;;;;;;;7.66;75.45;101794.06;5074045;28;19943;-68
2023/04/08 05:12:15;;;;;;;;;;;;;;;7.29;76.29;101793.31;5043617;28;19925;-68
2023/04/08 05:14:42;;;;;;;;;;;;;;;7.33;76.83;101792.53;5062591;28;19928;-69
2023/04/08 05:17:09;;;;;;;;;;;;;;;7.31;77.06;101796.63;5067716;28;20554;-69
2023/04/08 05:19:36;;;;;;;;;;;;;;;7.28;77.23;101797.16;5038550;28;19928;-69
2023/04/08 05:22:03;;;;;;;;;;;;;;;7.22;77.09;101798.22;5061638;28;20342;-68
2023/04/08 05:24:30;;;;;;;;;;;;;;;7.27;76.79;101799.06;5061497;28;20386;-69
2023/04/08 05:26:58;;;;;;;;;;;;;;;7.26;77.16;101802.91;5058979;28;19927;-68
2023/04/08 05:29:25;;;;;;;;;;;;;;;7.39;76.46;101807.09;5052605;28;19936;-66
2023/04/08 05:31:52;;;;;;;;;;;;;;;7.32;77.01;101809.25;5065081;28;19920;-65
2023/04/08 05:34:21;;;;;;;;;;;;;;;7.41;76.33;101808.47;5056227;28;19924;-66
2023/04/08 05:36:51;;;;;;;;;;;;;;;7.39;76.46;101812.56;5070547;28;19925;-64
2023/04/08 05:39:19;;;;;;;;;;;;;;;7.41;76.74;101819.41;5052216;28;19928;-68
2023/04/08 05:41:46;;;;;;;;;;;;;;;7.63;75.54;101816.53;5039217;28;20286;-68
2023/04/08 05:44:14;;;;;;;;;;;;;;;7.62;75.42;101812.13;5065019;28;20302;-68
2023/04/08 05:46:41;;;;;;;;;;;;;;;7.76;74.96;101818.78;5067507;28;19920;-68
2023/04/08 05:49:08;;;;;;;;;;;;;;;7.78;74.30;101822.91;5072795;28;19920;-68
2023/04/08 05:51:35;;;;;;;;;;;;;;;7.73;74.61;101824.78;5048488;28;19935;-66
2023/04/08 05:54:02;;;;;;;;;;;;;;;7.65;74.75;101831.59;5053127;28;19920;-66
2023/04/08 05:56:31;;;;;;;;;;;;;;;7.31;75.87;101841.28;5063420;28;19924;-65
2023/04/08 05:58:58;;;;;;;;;;;;;;;7.11;76.55;101843.91;5070975;28;20283;-65
2023/04/08 06:01:25;;;;;;;;;;;;;;;6.95;77.79;101847.63;5070817;28;19924;-66
2023/04/08 06:03:54;;;;;;;;;;;;;;;7.26;77.42;101851.41;5054824;28;19928;-65
2023/04/08 06:06:22;;;;;;;;;;;;;;;7.39;76.49;101843.53;5070749;28;19924;-65
2023/04/08 06:08:50;;;;;;;;;;;;;;;7.55;75.43;101849.94;5057042;28;19924;-65
2023/04/08 06:11:19;;;;;;;;;;;;;;;7.45;75.79;101841.66;5062808;28;19921;-65
2023/04/08 06:13:46;;;;;;;;;;;;;;;7.53;75.52;101846.66;5070920;28;19924;-65
2023/04/08 06:16:15;;;;;;;;;;;;;;;7.58;74.95;101847.47;5070581;28;19928;-66
2023/04/08 06:18:46;;;;;;;;;;;;;;;7.68;74.31;101846.72;5058711;28;19952;-65
2023/04/08 06:21:14;;;;;;;;;;;;;;;7.73;74.06;101849.47;5073040;28;19920;-65
2023/04/08 06:23:41;;;;;;;;;;;;;;;7.75;74.06;101847.31;5067145;28;19920;-65
2023/04/08 06:26:08;;;;;;;;;;;;;;;7.54;74.51;101856.50;5058001;28;20289;-66
2023/04/08 06:28:35;;;;;;;;;;;;;;;7.27;75.74;101855.81;5070020;28;20011;-66
2023/04/08 06:31:02;;;;;;;;;;;;;;;7.33;75.73;101861.03;5053224;28;19928;-69
2023/04/08 06:33:30;;;;;;;;;;;;;;;7.41;75.19;101865.22;5053580;28;19925;-68
2023/04/08 06:36:06;;;;;;;;;;;;;;;7.53;74.86;101852.13;5069479;28;19932;-69
2023/04/08 06:38:34;;;;;;;;;;;;;;;7.42;75.22;101859.47;5049099;28;19931;-68
2023/04/08 06:41:07;;;;;;;;;;;;;;;7.58;74.55;101863.91;5070098;28;19924;-69
2023/04/08 06:43:36;;;;;;;;;;;;;;;7.48;75.10;101874.03;5057201;28;19931;-68
2023/04/08 06:46:04;;;;;;;;;;;;;;;7.41;75.35;101885.22;5062809;28;19932;-67
2023/04/08 06:48:31;;;;;;;;;;;;;;;7.50;75.09;101888.28;5066836;28;19924;-68
2023/04/08 06:50:58;;;;;;;;;;;;;;;7.89;73.97;101890.44;5069295;28;19973;-68
2023/04/08 06:53:28;;;;;;;;;;;;;;;8.09;72.56;101891.63;5068918;28;20006;-69
2023/04/08 06:55:55;;;;;;;;;;;;;;;7.81;72.91;101901.91;5070329;28;19943;-66
2023/04/08 06:58:22;;;;;;;;;;;;;;;7.70;73.24;101905.69;5052927;28;19930;-65
2023/04/08 07:00:49;;;;;;;;;;;;;;;7.93;72.98;101905.25;5068367;28;19924;-66
2023/04/08 07:03:16;;;;;;;;;;;;;;;7.56;73.63;101907.25;5068880;28;19931;-68
2023/04/08 07:05:44;;;;;;;;;;;;;;;7.34;74.90;101903.78;5057775;28;19924;-69
2023/04/08 07:08:11;;;;;;;;;;;;;;;7.60;74.46;101908.34;5057095;28;19924;-65
2023/04/08 07:10:38;;;;;;;;;;;;;;;7.63;73.79;101904.28;5068163;28;19991;-66
2023/04/08 07:13:06;;;;;;;;;;;;;;;7.71;73.76;101909.25;5070953;28;19932;-66
2023/04/08 07:15:33;;;;;;;;;;;;;;;7.65;73.73;101913.06;5068226;28;19924;-69
2023/04/08 07:18:01;;;;;;;;;;;;;;;7.63;74.30;101913.34;5062780;28;19932;-67
2023/04/08 07:20:29;;;;;;;;;;;;;;;7.70;73.54;101913.94;5070768;28;19927;-65
2023/04/08 07:22:58;;;;;;;;;;;;;;;7.63;73.79;101905.09;5050537;28;20012;-68
2023/04/08 07:25:25;;;;;;;;;;;;;;;7.68;73.88;101915.28;5065928;28;19951;-65
2023/04/08 07:27:53;;;;;;;;;;;;;;;7.83;73.38;101912.59;5050811;28;19925;-66
2023/04/08 07:30:21;;;;;;;;;;;;;;;7.83;73.07;101918.09;5047617;28;19928;-63
2023/04/08 07:32:48;;;;;;;;;;;;;;;7.83;73.29;101923.56;5069919;28;19921;-62
2023/04/08 07:35:22;;;;;;;;;;;;;;;7.84;73.93;101915.09;5054467;28;19938;-64
2023/04/08 07:37:50;;;;;;;;;;;;;;;8.20;72.82;101918.81;5064625;28;19935;-66
2023/04/08 07:40:17;;;;;;;;;;;;;;;7.84;72.74;101915.09;5053483;28;19967;-66
2023/04/08 07:42:44;;;;;;;;;;;;;;;7.90;73.84;101915.94;5059561;28;19921;-67
2023/04/08 07:45:11;;;;;;;;;;;;;;;8.25;73.27;101916.13;5060677;28;19931;-67
2023/04/08 07:47:39;;;;;;;;;;;;;;;8.41;71.83;101917.00;5061696;28;19927;-67
2023/04/08 07:50:06;;;;;;;;;;;;;;;8.42;71.17;101919.47;5062525;28;19924;-66
2023/04/08 07:52:33;;;;;;;;;;;;;;;8.29;71.53;101921.91;5061700;28;19931;-67
2023/04/08 07:55:00;;;;;;;;;;;;;;;8.55;71.49;101924.47;5054677;28;19932;-63
2023/04/08 07:57:28;;;;;;;;;;;;;;;8.39;70.70;101921.94;5065048;28;19924;-63
2023/04/08 07:59:55;;;;;;;;;;;;;;;8.31;71.65;101931.53;5066503;28;19999;-64
2023/04/08 08:02:22;;;;;;;;;;;;;;;8.46;70.92;101926.09;5051693;28;19920;-63
2023/04/08 08:04:50;;;;;;;;;;;;;;;8.72;70.96;101929.72;5063020;28;19921;-63
2023/04/08 08:07:17;;;;;;;;;;;;;;;8.48;70.97;101931.31;5050025;28;19932;-64
2023/04/08 08:09:44;;;;;;;;;;;;;;;8.88;70.81;101929.47;5069981;28;19944;-64
2023/04/08 08:12:11;;;;;;;;;;;;;;;8.54;70.62;101927.50;5066979;28;20269;-64
2023/04/08 08:14:38;;;;;;;;;;;;;;;8.82;70.47;101927.00;5059269;28;19924;-65
2023/04/08 08:17:06;;;;;;;;;;;;;;;9.27;69.51;101921.53;5089825;28;20302;-64
2023/04/08 08:19:33;;;;;;;;;;;;;;;8.99;69.52;101925.66;5057665;28;19920;-66
2023/04/08 08:22:00;;;;;;;;;;;;;;;9.12;68.93;101937.22;5059509;28;19920;-66
2023/04/08 08:24:27;;;;;;;;;;;;;;;9.01;69.29;101934.44;5060218;28;19925;-66
2023/04/08 08:26:54;;;;;;;;;;;;;;;9.19;69.15;101927.56;5068845;28;19931;-68
2023/04/08 08:29:21;;;;;;;;;;;;;;;9.45;67.63;101933.91;5063274;28;19935;-70
2023/04/08 08:31:48;;;;;;;;;;;;;;;9.19;68.46;101935.00;5063656;28;19920;-70
2023/04/08 08:34:15;;;;;;;;;;;;;;;9.34;67.98;101943.25;5072470;28;19920;-69
2023/04/08 08:36:43;;;;;;;;;;;;;;;9.01;68.86;101934.44;5070875;28;19932;-70
2023/04/08 08:39:10;;;;;;;;;;;;;;;9.15;68.48;101940.25;5072262;28;19920;-70
2023/04/08 08:41:37;;;;;;;;;;;;;;;8.84;69.50;101946.78;5057330;28;20007;-70
2023/04/08 08:44:04;;;;;;;;;;;;;;;8.94;69.82;101931.13;5045156;28;20359;-70
2023/04/08 08:46:31;;;;;;;;;;;;;;;8.93;69.60;101939.66;5067417;28;19925;-70
2023/04/08 08:48:58;;;;;;;;;;;;;;;9.17;68.72;101943.50;5069566;28;19935;-70
2023/04/08 08:51:26;;;;;;;;;;;;;;;9.34;68.27;101935.84;5066906;28;19931;-70
2023/04/08 08:53:53;;;;;;;;;;;;;;;9.46;67.68;101938.28;5057997;28;19939;-70
2023/04/08 08:56:21;;;;;;;;;;;;;;;9.59;67.27;101932.25;5070267;28;19920;-69
2023/04/08 08:58:48;;;;;;;;;;;;;;;9.62;67.29;101931.69;5060998;28;19992;-69
2023/04/08 09:01:31;;;;;;;;;;;;;;;9.89;66.43;101934.91;5070885;28;20015;-70
2023/04/08 09:04:07;;;;;;;;;;;;;;;9.82;65.88;101934.38;5070514;28;19925;-68
2023/04/08 09:06:38;;;;;;;;;;;;;;;9.37;67.27;101937.19;5062315;28;19924;-67
2023/04/08 09:09:09;;;;;;;;;;;;;;;9.72;66.81;101942.66;5069982;28;19924;-69
2023/04/08 09:11:37;;;;;;;;;;;;;;;9.85;66.57;101939.34;5049997;28;19924;-69
2023/04/08 09:14:05;;;;;;;;;;;;;;;10.10;65.76;101937.38;5053881;28;19927;-69
2023/04/08 09:16:33;;;;;;;;;;;;;;;10.22;65.14;101934.28;5065058;28;19924;-70
2023/04/08 09:19:08;;;;;;;;;;;;;;;10.41;64.03;101937.25;5070254;28;19928;-68
2023/04/08 09:21:35;;;;;;;;;;;;;;;10.17;64.71;101935.13;5068003;28;19949;-71
2023/04/08 09:24:02;;;;;;;;;;;;;;;10.62;64.00;101928.59;5068507;28;19925;-71
2023/04/08 09:26:29;;;;;;;;;;;;;;;10.90;62.75;101936.13;5063974;28;19932;-71
2023/04/08 09:29:06;;;;;;;;;;;;;;;10.96;62.20;101942.44;5054091;28;19924;-68
2023/04/08 09:31:55;;;;;;;;;;;;;;;10.82;62.53;101938.66;5052060;28;20003;-67
2023/04/08 09:34:23;;;;;;;;;;;;;;;10.45;62.95;101936.38;5069118;28;20398;-70
2023/04/08 09:36:50;;;;;;;;;;;;;;;10.67;63.24;101934.06;5067570;28;19921;-71
2023/04/08 09:39:17;;;;;;;;;;;;;;;10.78;62.17;101937.59;5039375;28;20715;-71
2023/04/08 09:41:46;;;;;;;;;;;;;;;10.81;62.60;101940.59;5065738;28;19954;-67
2023/04/08 09:44:15;;;;;;;;;;;;;;;10.71;62.89;101942.59;5068557;28;20383;-69
2023/04/08 09:46:43;;;;;;;;;;;;;;;10.48;63.63;101938.56;5073354;28;19933;-70
2023/04/08 09:49:30;;;;;;;;;;;;;;;10.39;64.12;101934.75;5057388;28;20299;-71
2023/04/08 09:52:14;;;;;;;;;;;;;;;10.69;63.64;101950.31;5070063;28;19940;-69
2023/04/08 09:54:51;;;;;;;;;;;;;;;10.51;64.08;101948.22;5069838;28;19931;-70
2023/04/08 09:57:36;;;;;;;;;;;;;;;10.66;63.41;101945.38;5063164;28;20391;-69
2023/04/08 10:00:04;;;;;;;;;;;;;;;10.70;62.27;101941.78;5050274;28;19929;-68
2023/04/08 10:02:48;;;;;;;;;;;;;;;11.17;63.24;101942.00;5061146;28;19931;-70
2023/04/08 10:05:15;;;;;;;;;;;;;;;11.21;61.34;101936.72;5058108;28;19924;-70
2023/04/08 10:07:43;;;;;;;;;;;;;;;10.97;61.70;101936.63;5058490;28;19932;-70
2023/04/08 10:10:10;;;;;;;;;;;;;;;10.77;62.61;101945.03;5052291;28;19932;-70
2023/04/08 10:12:37;;;;;;;;;;;;;;;11.08;63.09;101946.50;5068937;28;20394;-70
2023/04/08 10:15:23;;;;;;;;;;;;;;;10.89;62.04;101950.19;5066734;28;19927;-70
2023/04/08 10:18:12;;;;;;;;;;;;;;;10.87;63.07;101956.00;5068011;28;19929;-70
2023/04/08 10:20:40;;;;;;;;;;;;;;;11.18;63.08;101943.66;5042770;28;19936;-70
2023/04/08 10:23:08;;;;;;;;;;;;;;;11.20;61.80;101957.97;5065680;28;19947;-69
2023/04/08 10:25:43;;;;;;;;;;;;;;;11.31;60.90;101948.50;5047251;28;19936;-69
2023/04/08 10:28:15;;;;;;;;;;;;;;;11.04;60.75;101939.06;5073197;28;19920;-69
2023/04/08 10:30:48;;;;;;;;;;;;;;;11.09;60.79;101942.59;5058710;28;19959;-68
2023/04/08 10:33:17;;;;;;;;;;;;;;;11.01;60.95;101939.63;5042125;28;19921;-66
2023/04/08 10:35:48;;;;;;;;;;;;;;;10.97;61.02;101938.56;5062359;28;20580;-70
2023/04/08 10:38:16;;;;;;;;;;;;;;;11.29;60.60;101936.94;5067637;28;19920;-70
2023/04/08 10:40:43;;;;;;;;;;;;;;;11.26;59.68;101929.22;5048314;28;19924;-70
2023/04/08 10:43:11;;;;;;;;;;;;;;;11.71;60.05;101927.19;5063039;28;19928;-69
2023/04/08 10:45:39;;;;;;;;;;;;;;;11.66;59.15;101913.47;5066510;28;19939;-69
2023/04/08 10:48:19;;;;;;;;;;;;;;;11.67;57.91;101915.09;5062539;28;19928;-69
2023/04/08 10:50:59;;;;;;;;;;;;;;;11.75;58.93;101909.75;5063095;28;20403;-70
2023/04/08 10:53:27;;;;;;;;;;;;;;;11.90;59.16;101906.84;5071177;28;19925;-69
2023/04/08 10:56:02;;;;;;;;;;;;;;;12.00;58.05;101900.38;5064976;28;19924;-69
2023/04/08 10:58:30;;;;;;;;;;;;;;;11.92;58.41;101907.38;5068439;28;19939;-68
2023/04/08 11:01:06;;;;;;;;;;;;;;;11.79;57.50;101910.00;5056720;28;19936;-69
2023/04/08 11:03:34;;;;;;;;;;;;;;;11.93;56.78;101906.25;5055818;28;19925;-69
2023/04/08 11:06:02;;;;;;;;;;;;;;;11.86;56.50;101891.13;5060728;28;21545;-68
2023/04/08 11:08:31;;;;;;;;;;;;;;;12.29;56.27;101887.31;5068490;28;20156;-69
2023/04/08 11:11:01;;;;;;;;;;;;;;;12.24;56.65;101890.13;5070415;28;19931;-69
2023/04/08 11:13:29;;;;;;;;;;;;;;;12.39;56.58;101885.25;5054045;28;19931;-69
2023/04/08 11:16:01;;;;;;;;;;;;;;;12.34;55.63;101885.28;5056760;28;19920;-69
2023/04/08 11:18:30;;;;;;;;;;;;;;;12.73;55.54;101875.88;5064919;28;20039;-69
2023/04/08 11:20:57;;;;;;;;;;;;;;;12.68;55.16;101878.72;5066218;28;19924;-68
2023/04/08 11:23:26;;;;;;;;;;;;;;;12.67;54.60;101877.09;5059587;28;19924;-68
2023/04/08 11:25:53;;;;;;;;;;;;;;;12.32;55.24;101875.66;5069626;28;19931;-68
2023/04/08 11:28:21;;;;;;;;;;;;;;;12.28;55.72;101877.38;5057650;28;19947;-68
2023/04/08 11:30:49;;;;;;;;;;;;;;;12.05;56.38;101876.28;5064986;28;19929;-69
2023/04/08 11:33:16;;;;;;;;;;;;;;;12.14;55.68;101882.81;5080005;28;19920;-69
2023/04/08 11:35:44;;;;;;;;;;;;;;;12.02;55.68;101878.81;5054462;28;20302;-69
2023/04/08 11:38:21;;;;;;;;;;;;;;;12.34;54.92;101878.97;5072104;28;19927;-69
2023/04/08 11:40:52;;;;;;;;;;;;;;;12.32;53.98;101878.44;5049446;28;20398;-69
2023/04/08 11:43:19;;;;;;;;;;;;;;;12.43;53.62;101882.69;5056786;28;19927;-68
2023/04/08 11:45:46;;;;;;;;;;;;;;;12.31;53.99;101874.00;5068241;28;20002;-67
2023/04/08 11:48:15;;;;;;;;;;;;;;;12.30;54.09;101867.69;5066025;28;19995;-70
2023/04/08 11:50:42;;;;;;;;;;;;;;;12.39;54.12;101873.34;5066715;28;19924;-69
2023/04/08 11:53:19;;;;;;;;;;;;;;;12.43;53.27;101866.09;5064722;28;19924;-68
2023/04/08 11:55:47;;;;;;;;;;;;;;;12.50;52.95;101874.84;5055341;28;19928;-68
2023/04/08 11:58:14;;;;;;;;;;;;;;;12.54;52.51;101866.78;5075091;28;19931;-69
2023/04/08 12:00:42;;;;;;;;;;;;;;;12.68;53.40;101862.16;5064484;28;20003;-68
2023/04/08 12:03:10;;;;;;;;;;;;;;;12.97;51.96;101860.84;5061312;28;19948;-69
2023/04/08 12:05:37;;;;;;;;;;;;;;;12.56;52.64;101859.00;5061778;28;19924;-70
2023/04/08 12:08:04;;;;;;;;;;;;;;;12.93;52.45;101859.00;5062755;28;19924;-69
2023/04/08 12:10:32;;;;;;;;;;;;;;;12.95;51.46;101857.59;5073252;28;19924;-68
2023/04/08 12:12:59;;;;;;;;;;;;;;;12.83;52.11;101861.94;5060248;28;19925;-68
2023/04/08 12:15:26;;;;;;;;;;;;;;;13.15;51.56;101864.72;5069109;28;19924;-65
2023/04/08 12:17:53;;;;;;;;;;;;;;;13.03;51.20;101848.63;5051842;28;19936;-65
2023/04/08 12:20:21;;;;;;;;;;;;;;;13.18;51.30;101845.56;5072801;28;19920;-67
2023/04/08 12:22:48;;;;;;;;;;;;;;;13.22;50.39;101843.84;5058273;28;19924;-65
2023/04/08 12:25:15;;;;;;;;;;;;;;;13.42;50.98;101850.97;5067278;28;19924;-64
2023/04/08 12:27:42;;;;;;;;;;;;;;;13.27;50.22;101849.28;5060199;28;19925;-64
2023/04/08 12:30:09;;;;;;;;;;;;;;;13.41;48.93;101855.69;5056747;28;20657;-64
2023/04/08 12:32:36;;;;;;;;;;;;;;;13.24;49.16;101852.69;5053129;28;19928;-64
2023/04/08 12:35:04;;;;;;;;;;;;;;;13.50;48.41;101848.31;5073420;28;19931;-64
2023/04/08 12:37:32;;;;;;;;;;;;;;;13.78;48.11;101842.78;5071269;28;19921;-65
2023/04/08 12:39:59;;;;;;;;;;;;;;;13.76;47.40;101848.63;5065516;28;19924;-64
2023/04/08 12:42:26;;;;;;;;;;;;;;;13.54;47.90;101852.13;5067594;28;19940;-64
2023/04/08 12:44:54;;;;;;;;;;;;;;;13.86;48.08;101842.09;5070748;28;19920;-65
2023/04/08 12:47:21;;;;;;;;;;;;;;;13.52;47.75;101846.06;5067540;28;19929;-65
2023/04/08 12:49:52;;;;;;;;;;;;;;;13.77;48.12;101822.59;5066006;28;19920;-65